createdAt,value
2023-05-15T00:00:58.628Z,11.00
2023-05-15T00:03:26.058Z,10.90
2023-05-15T00:05:53.662Z,11.10
2023-05-15T00:08:20.898Z,11.00
2023-05-15T00:11:00.128Z,11.10
2023-05-15T00:13:28.600Z,11.10
2023-05-15T00:15:56.097Z,11.20
2023-05-15T00:18:23.324Z,11.00
2023-05-15T00:20:51.131Z,11.00
2023-05-15T00:23:18.597Z,11.00
2023-05-15T00:25:45.829Z,11.10
2023-05-15T00:28:13.398Z,11.10
2023-05-15T00:30:40.605Z,11.10
2023-05-15T00:33:08.034Z,11.00
2023-05-15T00:35:37.164Z,10.90
2023-05-15T00:38:04.695Z,11.00
2023-05-15T00:40:32.875Z,11.00
2023-05-15T00:43:01.772Z,11.00
2023-05-15T00:45:30.287Z,10.90
2023-05-15T00:47:59.213Z,10.90
2023-05-15T00:50:32.210Z,10.90
2023-05-15T00:53:01.579Z,10.90
2023-05-15T00:55:29.365Z,10.90
2023-05-15T00:57:59.723Z,10.90
2023-05-15T01:00:28.406Z,10.90
2023-05-15T01:02:56.000Z,11.00
2023-05-15T01:05:23.812Z,10.90
2023-05-15T01:08:06.742Z,10.90
2023-05-15T01:10:35.840Z,10.90
2023-05-15T01:13:05.946Z,10.80
2023-05-15T01:15:34.296Z,10.90
2023-05-15T01:18:01.893Z,10.90
2023-05-15T01:20:33.762Z,10.80
2023-05-15T01:23:16.070Z,10.80
2023-05-15T01:26:09.912Z,10.80
2023-05-15T01:28:42.300Z,10.80
2023-05-15T01:31:16.862Z,10.70
2023-05-15T01:33:47.662Z,10.70
2023-05-15T01:36:21.574Z,10.50
2023-05-15T01:38:53.555Z,10.60
2023-05-15T01:41:41.743Z,10.70
2023-05-15T01:44:17.084Z,10.80
2023-05-15T01:46:46.830Z,10.90
2023-05-15T01:49:18.659Z,10.80
2023-05-15T01:51:51.103Z,10.90
2023-05-15T01:54:20.894Z,10.80
2023-05-15T01:56:48.738Z,10.80
2023-05-15T01:59:17.770Z,10.80
2023-05-15T02:01:46.007Z,10.90
2023-05-15T02:04:14.395Z,10.90
2023-05-15T02:06:41.861Z,10.80
2023-05-15T02:09:10.248Z,10.90
2023-05-15T02:11:37.736Z,10.80
2023-05-15T02:14:05.477Z,10.70
2023-05-15T02:16:32.707Z,10.80
2023-05-15T02:19:00.271Z,10.70
2023-05-15T02:21:27.601Z,10.80
2023-05-15T02:23:55.149Z,10.80
2023-05-15T02:26:53.323Z,10.80
2023-05-15T02:29:29.235Z,10.80
2023-05-15T02:32:09.805Z,10.80
2023-05-15T02:34:58.793Z,10.70
2023-05-15T02:37:31.085Z,10.80
2023-05-15T02:40:00.282Z,10.80
2023-05-15T02:42:29.635Z,10.80
2023-05-15T02:44:57.957Z,10.80
2023-05-15T02:47:26.550Z,10.80
2023-05-15T02:49:55.373Z,10.80
2023-05-15T02:52:25.853Z,10.80
2023-05-15T02:54:53.304Z,10.70
2023-05-15T02:57:20.874Z,10.70
2023-05-15T02:59:48.572Z,10.70
2023-05-15T03:02:15.974Z,10.70
2023-05-15T03:04:43.749Z,10.70
2023-05-15T03:07:11.538Z,10.70
2023-05-15T03:09:38.732Z,10.70
2023-05-15T03:12:06.557Z,10.70
2023-05-15T03:14:33.945Z,10.70
2023-05-15T03:17:01.529Z,10.70
2023-05-15T03:19:28.797Z,10.70
2023-05-15T03:21:56.205Z,10.80
2023-05-15T03:24:23.634Z,10.80
2023-05-15T03:26:50.907Z,10.80
2023-05-15T03:29:18.212Z,10.80
2023-05-15T03:31:45.738Z,10.80
2023-05-15T03:34:13.133Z,10.70
2023-05-15T03:36:40.306Z,10.80
2023-05-15T03:39:07.854Z,11.00
2023-05-15T03:41:35.250Z,10.80
2023-05-15T03:44:02.818Z,10.80
2023-05-15T03:46:30.086Z,10.80
2023-05-15T03:48:57.397Z,10.80
2023-05-15T03:51:24.982Z,10.80
2023-05-15T03:53:54.805Z,10.70
2023-05-15T03:56:23.571Z,10.70
2023-05-15T03:58:50.744Z,10.70
2023-05-15T04:01:18.334Z,10.80
2023-05-15T04:03:45.908Z,10.60
2023-05-15T04:06:13.031Z,10.70
2023-05-15T04:08:41.501Z,10.70
2023-05-15T04:11:10.488Z,10.70
2023-05-15T04:13:37.948Z,10.90
2023-05-15T04:16:05.543Z,10.70
2023-05-15T04:18:33.075Z,10.70
2023-05-15T04:21:00.552Z,10.80
2023-05-15T04:23:27.803Z,10.70
2023-05-15T04:25:55.068Z,10.70
2023-05-15T04:28:22.610Z,10.80
2023-05-15T04:30:49.782Z,10.80
2023-05-15T04:33:17.091Z,10.80
2023-05-15T04:35:44.316Z,10.80
2023-05-15T04:38:11.776Z,10.90
2023-05-15T04:40:39.229Z,10.90
2023-05-15T04:43:06.524Z,10.90
2023-05-15T04:45:34.034Z,11.00
2023-05-15T04:48:01.423Z,11.00
2023-05-15T04:50:28.801Z,11.10
2023-05-15T04:52:56.215Z,11.10
2023-05-15T04:55:23.850Z,11.10
2023-05-15T04:57:51.653Z,11.10
2023-05-15T05:00:18.907Z,11.10
2023-05-15T05:02:46.368Z,11.00
2023-05-15T05:05:14.721Z,11.00
2023-05-15T05:07:43.660Z,11.10
2023-05-15T05:10:11.485Z,10.90
2023-05-15T05:12:38.699Z,10.90
2023-05-15T05:15:06.422Z,10.90
2023-05-15T05:17:33.850Z,11.00
2023-05-15T05:20:01.126Z,11.10
2023-05-15T05:22:28.365Z,11.10
2023-05-15T05:24:56.452Z,11.00
2023-05-15T05:27:23.630Z,11.10
2023-05-15T05:29:52.482Z,11.00
2023-05-15T05:32:19.962Z,10.90
2023-05-15T05:34:47.571Z,10.90
2023-05-15T05:37:15.127Z,11.00
2023-05-15T05:39:42.340Z,11.20
2023-05-15T05:42:09.534Z,11.10
2023-05-15T05:44:36.977Z,11.10
2023-05-15T05:47:04.408Z,11.10
2023-05-15T05:49:31.925Z,11.00
2023-05-15T05:52:05.954Z,11.10
2023-05-15T05:54:33.148Z,11.00
2023-05-15T05:57:00.849Z,11.00
2023-05-15T05:59:29.130Z,11.00
2023-05-15T06:01:57.005Z,11.00
2023-05-15T06:04:24.337Z,11.10
2023-05-15T06:06:51.917Z,11.20
2023-05-15T06:09:19.075Z,11.20
2023-05-15T06:11:46.422Z,11.40
2023-05-15T06:14:13.608Z,11.40
2023-05-15T06:16:41.033Z,11.40
2023-05-15T06:19:08.242Z,11.30
2023-05-15T06:21:35.676Z,11.20
2023-05-15T06:24:03.090Z,11.20
2023-05-15T06:26:30.932Z,11.30
2023-05-15T06:28:58.232Z,11.40
2023-05-15T06:31:25.732Z,11.40
2023-05-15T06:33:53.457Z,11.40
2023-05-15T06:36:21.665Z,11.50
2023-05-15T06:38:48.884Z,11.50
2023-05-15T06:41:16.148Z,11.70
2023-05-15T06:43:43.567Z,11.80
2023-05-15T06:46:11.154Z,11.90
2023-05-15T06:48:38.638Z,12.10
2023-05-15T06:51:05.899Z,12.20
2023-05-15T06:53:33.189Z,12.20
2023-05-15T06:56:00.697Z,12.30
2023-05-15T06:58:28.143Z,12.30
2023-05-15T07:00:56.469Z,12.50
2023-05-15T07:03:24.156Z,12.80
2023-05-15T07:05:52.378Z,12.70
2023-05-15T07:08:19.738Z,12.90
2023-05-15T07:10:48.149Z,12.90
2023-05-15T07:13:18.858Z,12.90
2023-05-15T07:15:46.051Z,13.00
2023-05-15T07:18:13.533Z,12.90
2023-05-15T07:20:40.867Z,13.00
2023-05-15T07:23:08.324Z,13.10
2023-05-15T07:25:35.570Z,13.10
2023-05-15T07:28:02.805Z,13.40
2023-05-15T07:30:30.060Z,13.70
2023-05-15T07:32:57.473Z,13.90
2023-05-15T07:35:25.898Z,13.70
2023-05-15T07:37:53.374Z,14.00
2023-05-15T07:40:20.690Z,14.40
2023-05-15T07:42:48.147Z,14.50
2023-05-15T07:45:15.891Z,14.60
2023-05-15T07:47:47.344Z,14.60
2023-05-15T07:50:14.891Z,14.60
2023-05-15T07:52:43.276Z,14.80
2023-05-15T07:55:11.384Z,15.00
2023-05-15T07:57:39.901Z,15.10
2023-05-15T08:00:13.207Z,15.20
2023-05-15T08:02:41.832Z,15.40
2023-05-15T08:05:09.573Z,15.60
2023-05-15T08:07:36.933Z,15.60
2023-05-15T08:10:06.169Z,15.50
2023-05-15T08:12:33.875Z,15.20
2023-05-15T08:15:01.549Z,15.10
2023-05-15T08:17:29.102Z,15.00
2023-05-15T08:19:56.753Z,15.40
2023-05-15T08:22:24.153Z,15.70
2023-05-15T08:24:51.319Z,15.90
2023-05-15T08:27:18.697Z,15.80
2023-05-15T08:29:45.919Z,15.70
2023-05-15T08:32:13.559Z,15.40
2023-05-15T08:34:40.779Z,15.50
2023-05-15T08:37:08.205Z,15.20
2023-05-15T08:39:35.435Z,15.20
2023-05-15T08:42:24.263Z,15.50
2023-05-15T08:44:51.790Z,15.80
2023-05-15T08:47:20.492Z,16.00
2023-05-15T08:50:06.744Z,16.00
2023-05-15T08:52:34.542Z,16.40
2023-05-15T08:55:02.719Z,16.60
2023-05-15T08:57:30.369Z,16.40
2023-05-15T08:59:58.685Z,16.30
2023-05-15T09:02:26.370Z,15.90
2023-05-15T09:04:53.616Z,15.40
2023-05-15T09:07:21.492Z,15.10
2023-05-15T09:09:49.737Z,15.00
2023-05-15T09:12:18.070Z,14.90
2023-05-15T09:14:45.573Z,14.90
2023-05-15T09:17:13.021Z,14.70
2023-05-15T09:19:41.542Z,14.80
2023-05-15T09:22:23.393Z,14.80
2023-05-15T09:24:53.400Z,15.00
2023-05-15T09:27:20.938Z,15.20
2023-05-15T09:29:51.245Z,15.30
2023-05-15T09:32:18.780Z,15.40
2023-05-15T09:34:46.591Z,15.60
2023-05-15T09:37:34.523Z,15.90
2023-05-15T09:40:10.088Z,16.10
2023-05-15T09:42:37.755Z,16.40
2023-05-15T09:45:06.740Z,16.80
2023-05-15T09:47:34.611Z,17.00
2023-05-15T09:50:02.328Z,17.20
2023-05-15T09:52:30.117Z,17.40
2023-05-15T09:54:57.942Z,17.60
2023-05-15T09:57:25.417Z,17.80
2023-05-15T09:59:52.826Z,18.10
2023-05-15T10:02:32.294Z,18.30
2023-05-15T10:05:00.451Z,18.40
2023-05-15T10:07:32.939Z,18.70
2023-05-15T10:10:02.380Z,18.90
2023-05-15T10:12:32.378Z,18.80
2023-05-15T10:15:01.225Z,18.70
2023-05-15T10:17:31.796Z,18.70
2023-05-15T10:20:02.717Z,18.60
2023-05-15T10:22:32.329Z,18.50
2023-05-15T10:25:28.803Z,18.20
2023-05-15T10:27:56.848Z,18.10
2023-05-15T10:30:26.097Z,18.20
2023-05-15T10:32:55.490Z,18.20
2023-05-15T10:35:23.587Z,18.20
2023-05-15T10:37:50.867Z,18.50
2023-05-15T10:40:18.299Z,18.70
2023-05-15T10:42:47.718Z,18.90
2023-05-15T10:45:15.412Z,18.70
2023-05-15T10:47:43.881Z,18.50
2023-05-15T10:50:13.357Z,18.30
2023-05-15T10:52:41.720Z,18.30
2023-05-15T10:55:13.938Z,18.00
2023-05-15T10:57:41.610Z,17.80
2023-05-15T11:00:29.588Z,17.50
2023-05-15T11:02:58.572Z,17.20
2023-05-15T11:05:26.843Z,17.00
2023-05-15T11:08:25.964Z,16.90
2023-05-15T11:10:56.414Z,16.60
2023-05-15T11:13:23.893Z,16.20
2023-05-15T11:15:51.491Z,16.10
2023-05-15T11:18:20.244Z,16.10
2023-05-15T11:20:51.876Z,16.10
2023-05-15T11:23:23.317Z,16.10
2023-05-15T11:25:57.028Z,16.20
2023-05-15T11:28:29.352Z,16.10
2023-05-15T11:31:07.877Z,16.00
2023-05-15T11:33:38.117Z,15.90
2023-05-15T11:36:06.994Z,15.60
2023-05-15T11:38:39.949Z,15.30
2023-05-15T11:41:22.084Z,15.00
2023-05-15T11:43:50.525Z,14.80
2023-05-15T11:46:18.075Z,14.80
2023-05-15T11:48:49.648Z,14.70
2023-05-15T11:51:22.250Z,14.70
2023-05-15T11:53:51.415Z,14.80
2023-05-15T11:56:20.890Z,14.80
2023-05-15T11:58:55.593Z,14.80
2023-05-15T12:01:23.464Z,14.90
2023-05-15T12:03:54.921Z,15.00
2023-05-15T12:06:23.087Z,15.10
2023-05-15T12:08:53.885Z,15.10
2023-05-15T12:11:23.745Z,15.10
2023-05-15T12:13:55.262Z,15.10
2023-05-15T12:16:27.407Z,14.90
2023-05-15T12:18:57.284Z,14.80
2023-05-15T12:21:26.955Z,14.70
2023-05-15T12:24:06.871Z,14.50
2023-05-15T12:26:35.975Z,14.50
2023-05-15T12:29:05.333Z,14.30
2023-05-15T12:31:35.528Z,14.20
2023-05-15T12:34:03.201Z,14.10
2023-05-15T12:36:31.014Z,14.00
2023-05-15T12:38:58.771Z,13.80
2023-05-15T12:41:29.206Z,13.90
2023-05-15T12:43:56.517Z,13.80
2023-05-15T12:46:25.688Z,13.70
2023-05-15T12:48:53.789Z,13.80
2023-05-15T12:51:22.904Z,13.80
2023-05-15T12:53:57.617Z,13.70
2023-05-15T12:56:25.192Z,13.60
2023-05-15T12:58:54.556Z,13.60
2023-05-15T13:01:22.171Z,13.50
2023-05-15T13:03:50.246Z,13.50
2023-05-15T13:06:23.580Z,13.40
2023-05-15T13:08:51.538Z,13.40
2023-05-15T13:11:19.569Z,13.30
2023-05-15T13:13:48.773Z,13.30
2023-05-15T13:16:26.715Z,13.60
2023-05-15T13:18:54.127Z,13.60
2023-05-15T13:21:21.456Z,13.90
2023-05-15T13:23:48.841Z,14.00
2023-05-15T13:26:16.275Z,14.10
2023-05-15T13:28:43.636Z,14.10
2023-05-15T13:31:11.005Z,14.10
2023-05-15T13:33:38.551Z,14.40
2023-05-15T13:36:06.508Z,14.20
2023-05-15T13:38:33.943Z,14.30
2023-05-15T13:41:01.241Z,14.40
2023-05-15T13:43:28.679Z,14.30
2023-05-15T13:45:56.455Z,14.30
2023-05-15T13:48:23.983Z,14.20
2023-05-15T13:50:51.231Z,14.30
2023-05-15T13:53:18.900Z,14.30
2023-05-15T13:55:47.197Z,14.40
2023-05-15T13:58:15.333Z,14.40
2023-05-15T14:00:43.817Z,14.30
2023-05-15T14:03:13.438Z,14.20
2023-05-15T14:05:42.435Z,14.30
2023-05-15T14:08:09.780Z,14.30
2023-05-15T14:10:37.449Z,14.30
2023-05-15T14:13:04.886Z,14.40
2023-05-15T14:15:32.170Z,14.40
2023-05-15T14:17:59.493Z,14.40
2023-05-15T14:20:28.012Z,14.50
2023-05-15T14:22:58.487Z,14.50
2023-05-15T14:25:26.139Z,14.60
2023-05-15T14:27:53.675Z,14.70
2023-05-15T14:30:23.560Z,14.70
2023-05-15T14:32:54.499Z,14.70
2023-05-15T14:35:22.776Z,14.80
2023-05-15T14:37:50.205Z,15.00
2023-05-15T14:40:17.768Z,15.20
2023-05-15T14:42:44.993Z,15.40
2023-05-15T14:45:12.399Z,15.60
2023-05-15T14:47:39.691Z,15.60
2023-05-15T14:50:07.676Z,15.60
2023-05-15T14:52:34.984Z,15.70
2023-05-15T14:55:09.279Z,15.70
2023-05-15T14:57:38.180Z,15.70
2023-05-15T15:00:06.735Z,15.50
2023-05-15T15:02:34.285Z,15.10
2023-05-15T15:05:18.261Z,14.80
2023-05-15T15:08:06.872Z,14.70
2023-05-15T15:10:36.540Z,14.60
2023-05-15T15:13:04.688Z,14.40
2023-05-15T15:15:33.387Z,14.30
2023-05-15T15:18:05.723Z,14.10
2023-05-15T15:20:33.422Z,14.00
2023-05-15T15:23:00.849Z,13.80
2023-05-15T15:25:29.272Z,13.60
2023-05-15T15:27:58.215Z,13.50
2023-05-15T15:30:26.190Z,13.50
2023-05-15T15:32:54.745Z,13.40
2023-05-15T15:35:22.141Z,13.40
2023-05-15T15:37:49.614Z,13.50
2023-05-15T15:40:16.857Z,13.50
2023-05-15T15:42:44.265Z,13.30
2023-05-15T15:45:11.673Z,13.40
2023-05-15T15:47:39.215Z,13.40
2023-05-15T15:50:06.993Z,13.40
2023-05-15T15:52:34.431Z,13.50
2023-05-15T15:55:01.813Z,13.60
2023-05-15T15:57:29.852Z,13.70
2023-05-15T15:59:57.180Z,13.80
2023-05-15T16:02:24.640Z,13.80
2023-05-15T16:04:52.102Z,13.80
2023-05-15T16:07:19.673Z,13.80
2023-05-15T16:09:51.392Z,13.90
2023-05-15T16:12:28.111Z,14.00
2023-05-15T16:14:55.363Z,14.10
2023-05-15T16:17:22.656Z,14.20
2023-05-15T16:19:50.175Z,14.20
2023-05-15T16:22:17.739Z,14.20
2023-05-15T16:24:45.128Z,14.30
2023-05-15T16:27:12.550Z,14.30
2023-05-15T16:29:39.974Z,14.30
2023-05-15T16:32:07.996Z,14.30
2023-05-15T16:34:35.786Z,14.30
2023-05-15T16:37:04.858Z,14.30
2023-05-15T16:39:39.653Z,14.20
2023-05-15T16:42:09.307Z,14.20
2023-05-15T16:44:37.260Z,14.20
2023-05-15T16:47:04.793Z,14.10
2023-05-15T16:49:32.033Z,14.20
2023-05-15T16:51:59.433Z,14.30
2023-05-15T16:54:26.651Z,14.40
2023-05-15T16:56:54.129Z,14.40
2023-05-15T16:59:21.419Z,14.40
2023-05-15T17:01:48.725Z,14.30
2023-05-15T17:04:16.018Z,14.20
2023-05-15T17:06:43.246Z,14.20
2023-05-15T17:09:10.541Z,14.20
2023-05-15T17:11:37.778Z,14.10
2023-05-15T17:14:05.004Z,14.10
2023-05-15T17:16:32.283Z,14.20
2023-05-15T17:18:59.874Z,14.10
2023-05-15T17:21:27.151Z,14.20
2023-05-15T17:23:54.353Z,14.20
2023-05-15T17:26:24.249Z,14.20
2023-05-15T17:28:51.474Z,14.20
2023-05-15T17:31:20.999Z,14.20
2023-05-15T17:33:48.320Z,14.10
2023-05-15T17:36:16.718Z,14.10
2023-05-15T17:38:47.674Z,14.00
2023-05-15T17:41:14.968Z,13.90
2023-05-15T17:43:42.213Z,13.90
2023-05-15T17:46:09.811Z,14.30
2023-05-15T17:48:37.344Z,14.60
2023-05-15T17:51:04.530Z,15.00
2023-05-15T17:53:31.864Z,15.40
2023-05-15T17:55:59.296Z,15.70
2023-05-15T17:58:27.064Z,15.90
2023-05-15T18:00:54.445Z,15.80
2023-05-15T18:03:22.305Z,15.60
2023-05-15T18:05:49.817Z,15.80
2023-05-15T18:08:17.041Z,15.60
2023-05-15T18:10:44.240Z,15.40
2023-05-15T18:13:11.416Z,15.20
2023-05-15T18:15:39.112Z,14.90
2023-05-15T18:18:06.457Z,14.70
2023-05-15T18:20:38.057Z,14.60
2023-05-15T18:23:06.045Z,14.30
2023-05-15T18:25:39.675Z,14.20
2023-05-15T18:28:07.222Z,14.00
2023-05-15T18:31:48.106Z,13.90
2023-05-15T18:34:25.219Z,13.80
2023-05-15T18:36:58.667Z,14.10
2023-05-15T18:40:25.613Z,13.30
2023-05-15T18:43:08.611Z,13.50
2023-05-15T18:45:59.171Z,13.70
2023-05-15T18:51:25.551Z,12.90
2023-05-15T18:53:55.699Z,12.90
2023-05-15T18:56:23.454Z,12.80
2023-05-15T18:58:51.036Z,12.70
2023-05-15T19:01:18.401Z,12.70
2023-05-15T19:03:45.975Z,12.50
2023-05-15T19:06:19.783Z,12.40
2023-05-15T19:08:48.412Z,12.30
2023-05-15T19:11:16.651Z,12.30
2023-05-15T19:13:44.049Z,12.20
2023-05-15T19:16:12.509Z,12.10
2023-05-15T19:18:40.282Z,12.00
2023-05-15T19:21:07.521Z,11.90
2023-05-15T19:23:37.392Z,11.80
2023-05-15T19:26:04.601Z,11.80
2023-05-15T19:28:31.764Z,11.80
2023-05-15T19:30:59.167Z,11.70
2023-05-15T19:33:26.529Z,11.70
2023-05-15T19:35:53.944Z,11.60
2023-05-15T19:38:22.068Z,11.70
2023-05-15T19:40:49.220Z,11.50
2023-05-15T19:43:16.426Z,11.50
2023-05-15T19:45:43.812Z,11.40
2023-05-15T19:48:11.129Z,11.50
2023-05-15T19:50:39.652Z,11.30
2023-05-15T19:53:07.157Z,11.30
2023-05-15T19:55:34.402Z,11.30
2023-05-15T19:58:01.840Z,11.20
2023-05-15T20:00:29.092Z,11.20
2023-05-15T20:02:56.904Z,11.20
2023-05-15T20:05:24.363Z,11.20
2023-05-15T20:07:53.018Z,11.10
2023-05-15T20:10:21.009Z,11.10
2023-05-15T20:12:50.976Z,11.10
2023-05-15T20:15:18.215Z,11.10
2023-05-15T20:17:45.797Z,11.00
2023-05-15T20:20:15.398Z,11.00
2023-05-15T20:22:43.957Z,11.00
2023-05-15T20:25:11.322Z,11.00
2023-05-15T20:27:38.819Z,10.90
2023-05-15T20:30:10.190Z,11.00
2023-05-15T20:32:37.510Z,11.00
2023-05-15T20:35:05.414Z,10.90
2023-05-15T20:37:33.361Z,10.90
2023-05-15T20:40:00.759Z,10.90
2023-05-15T20:42:28.642Z,10.90
2023-05-15T20:44:55.841Z,10.90
2023-05-15T20:47:23.449Z,10.90
2023-05-15T20:49:50.836Z,10.90
2023-05-15T20:52:18.108Z,10.90
2023-05-15T20:54:45.601Z,10.80
2023-05-15T20:57:14.237Z,10.90
2023-05-15T20:59:42.001Z,10.90
2023-05-15T21:02:09.429Z,10.90
2023-05-15T21:04:36.622Z,10.90
2023-05-15T21:07:03.984Z,10.90
2023-05-15T21:09:31.686Z,10.90
2023-05-15T21:11:59.689Z,11.00
2023-05-15T21:14:27.286Z,11.00
2023-05-15T21:16:54.810Z,11.00
2023-05-15T21:19:22.487Z,11.00
2023-05-15T21:21:49.663Z,11.00
2023-05-15T21:24:17.050Z,11.10
2023-05-15T21:26:44.281Z,11.00
2023-05-15T21:29:13.935Z,11.10
2023-05-15T21:31:42.575Z,11.10
2023-05-15T21:34:10.050Z,11.20
2023-05-15T21:36:37.730Z,11.20
2023-05-15T21:39:04.929Z,11.20
2023-05-15T21:41:32.682Z,11.20
2023-05-15T21:43:59.882Z,11.20
2023-05-15T21:46:27.189Z,11.40
2023-05-15T21:48:54.641Z,11.20
2023-05-15T21:51:22.190Z,11.30
2023-05-15T21:53:50.849Z,11.40
2023-05-15T21:56:18.085Z,11.30
2023-05-15T21:58:45.348Z,11.50
2023-05-15T22:01:14.178Z,11.20
2023-05-15T22:03:42.697Z,11.20
2023-05-15T22:06:09.956Z,11.20
2023-05-15T22:08:37.365Z,11.20
2023-05-15T22:11:05.101Z,11.20
2023-05-15T22:13:32.329Z,11.20
2023-05-15T22:15:59.892Z,11.20
2023-05-15T22:18:29.933Z,11.20
2023-05-15T22:20:57.424Z,11.20
2023-05-15T22:23:24.668Z,11.20
2023-05-15T22:25:54.312Z,11.20
2023-05-15T22:28:21.884Z,11.20
2023-05-15T22:30:49.291Z,11.20
2023-05-15T22:33:16.695Z,11.20
2023-05-15T22:35:44.636Z,11.20
2023-05-15T22:38:12.196Z,11.20
2023-05-15T22:40:39.683Z,11.20
2023-05-15T22:43:06.923Z,11.20
2023-05-15T22:45:34.840Z,11.20
2023-05-15T22:48:02.356Z,11.20
2023-05-15T22:50:29.766Z,11.20
2023-05-15T22:52:57.002Z,11.30
2023-05-15T22:55:24.427Z,11.30
2023-05-15T22:57:51.856Z,11.20
2023-05-15T23:00:19.502Z,11.20
2023-05-15T23:02:46.970Z,11.20
2023-05-15T23:05:14.509Z,11.20
2023-05-15T23:07:41.699Z,11.20
2023-05-15T23:10:09.307Z,11.20
2023-05-15T23:12:36.681Z,11.10
2023-05-15T23:15:04.871Z,11.10
2023-05-15T23:17:32.409Z,11.10
2023-05-15T23:19:59.753Z,11.10
2023-05-15T23:22:26.981Z,11.10
2023-05-15T23:24:54.166Z,11.10
2023-05-15T23:27:21.355Z,11.10
2023-05-15T23:29:48.666Z,11.00
2023-05-15T23:32:16.085Z,11.10
2023-05-15T23:34:43.612Z,11.10
2023-05-15T23:37:11.014Z,11.20
2023-05-15T23:39:38.190Z,11.20
2023-05-15T23:42:05.873Z,11.10
2023-05-15T23:44:33.065Z,11.10
2023-05-15T23:47:00.459Z,11.10
2023-05-15T23:49:27.791Z,11.10
2023-05-15T23:51:54.958Z,11.10
2023-05-15T23:54:22.110Z,11.10
2023-05-15T23:56:49.540Z,11.10
2023-05-15T23:59:17.047Z,11.10
